Time;durP1;ratioP1;P1;durP2;ratioP2;P2;SDS_P1;SDS_P2;PMS_P1;PMS_P2;Temp;Humidity;BMP_temperature;BMP_pressure;BME280_temperature;BME280_humidity;BME280_pressure;Samples;Min_cycle;Max_cycle;Signal;HPM_P1;HPM_P2
2022/08/20 00:01:57;;;;;;;;;;;18.10;99.90;;;;;;5019522;28;19921;-66
2022/08/20 00:04:23;;;;;;;;;;;18.10;99.90;;;;;;5053512;28;19913;-67
2022/08/20 00:06:48;;;;;;;;;;;18.10;99.90;;;;;;5053219;28;20274;-67
2022/08/20 00:09:14;;;;;;;;;;;18.00;99.90;;;;;;5052290;28;19944;-66
2022/08/20 00:11:39;;;;;;;;;;;18.00;99.90;;;;;;5053324;28;19909;-66
2022/08/20 00:14:05;;;;;;;;;;;18.00;99.90;;;;;;5069374;28;20586;-65
2022/08/20 00:16:32;;;;;;;;;;;17.90;99.90;;;;;;5053465;28;20375;-65
2022/08/20 00:18:58;;;;;;;;;;;17.90;99.90;;;;;;5052830;28;19919;-65
2022/08/20 00:21:24;;;;;;;;;;;17.90;99.90;;;;;;5052427;28;19916;-66
2022/08/20 00:23:50;;;;;;;;;;;17.90;99.90;;;;;;5050911;28;19916;-66
2022/08/20 00:26:16;;;;;;;;;;;17.80;99.90;;;;;;5065981;28;20323;-67
2022/08/20 00:28:41;;;;;;;;;;;17.80;99.90;;;;;;5072009;28;19909;-67
2022/08/20 00:31:08;;;;;;;;;;;17.80;99.90;;;;;;5071641;28;19924;-65
2022/08/20 00:33:35;;;;;;;;;;;17.80;99.90;;;;;;5072291;28;19915;-66
2022/08/20 00:36:05;;;;;;;;;;;17.70;99.90;;;;;;5071366;28;19915;-67
2022/08/20 00:38:31;;;;;;;;;;;17.70;99.90;;;;;;5071336;28;19951;-67
2022/08/20 00:40:58;;;;;;;;;;;17.70;99.90;;;;;;5053757;28;20377;-65
2022/08/20 00:43:31;;;;;;;;;;;17.70;99.90;;;;;;5050222;28;20427;-67
2022/08/20 00:45:58;;;;;;;;;;;17.60;99.90;;;;;;5046159;28;19913;-67
2022/08/20 00:48:24;;;;;;;;;;;17.60;99.90;;;;;;5051939;28;19909;-66
2022/08/20 00:50:50;;;;;;;;;;;17.50;99.90;;;;;;5051660;28;19909;-67
2022/08/20 00:53:16;;;;;;;;;;;17.50;99.90;;;;;;5052557;28;20329;-66
2022/08/20 00:55:41;;;;;;;;;;;17.50;99.90;;;;;;5052270;28;19909;-67
2022/08/20 00:58:08;;;;;;;;;;;17.50;99.90;;;;;;5052315;28;19909;-65
2022/08/20 01:00:39;;;;;;;;;;;17.50;99.90;;;;;;5051930;28;19917;-66
2022/08/20 01:03:08;;;;;;;;;;;17.50;99.90;;;;;;5052282;28;19928;-66
2022/08/20 01:05:40;;;;;;;;;;;17.50;99.90;;;;;;5051552;28;19913;-67
2022/08/20 01:08:06;;;;;;;;;;;17.50;99.90;;;;;;5052013;28;20381;-66
2022/08/20 01:10:34;;;;;;;;;;;17.50;99.90;;;;;;5051889;28;19915;-66
2022/08/20 01:12:59;;;;;;;;;;;17.50;99.90;;;;;;5052161;28;20246;-66
2022/08/20 01:15:27;;;;;;;;;;;17.40;99.90;;;;;;5051917;28;19909;-65
2022/08/20 01:17:56;;;;;;;;;;;17.40;99.90;;;;;;5052143;28;19909;-66
2022/08/20 01:20:23;;;;;;;;;;;17.40;99.90;;;;;;5051379;28;19931;-66
2022/08/20 01:25:36;;;;;;;;;;;17.30;99.90;;;;;;5051866;28;19955;-67
2022/08/20 01:28:02;;;;;;;;;;;17.30;99.90;;;;;;5051950;28;19944;-64
2022/08/20 01:30:27;;;;;;;;;;;17.30;99.90;;;;;;5051594;28;19920;-66
2022/08/20 01:32:53;;;;;;;;;;;17.30;99.90;;;;;;5033184;28;19909;-67
2022/08/20 01:35:20;;;;;;;;;;;17.20;99.90;;;;;;5051577;28;19931;-68
2022/08/20 01:37:45;;;;;;;;;;;17.20;99.90;;;;;;5051194;28;19940;-67
2022/08/20 01:40:12;;;;;;;;;;;17.20;99.90;;;;;;5051710;28;20580;-66
2022/08/20 01:42:43;;;;;;;;;;;17.20;99.90;;;;;;5070483;28;20791;-67
2022/08/20 01:45:08;;;;;;;;;;;17.20;99.90;;;;;;5043099;28;19932;-66
2022/08/20 01:47:34;;;;;;;;;;;17.20;99.90;;;;;;5033380;28;19932;-67
2022/08/20 01:50:01;;;;;;;;;;;17.10;99.90;;;;;;5050999;28;19912;-67
2022/08/20 01:52:27;;;;;;;;;;;17.10;99.90;;;;;;5033960;28;19991;-66
2022/08/20 01:54:53;;;;;;;;;;;17.10;99.90;;;;;;5051453;28;20000;-68
2022/08/20 01:57:19;;;;;;;;;;;17.10;99.90;;;;;;5051442;28;20368;-66
2022/08/20 01:59:46;;;;;;;;;;;17.10;99.90;;;;;;5051398;28;19939;-67
2022/08/20 02:02:12;;;;;;;;;;;17.00;99.90;;;;;;5051186;28;20021;-68
2022/08/20 02:04:39;;;;;;;;;;;17.00;99.90;;;;;;5050777;28;20369;-67
2022/08/20 02:07:05;;;;;;;;;;;17.00;99.90;;;;;;5051809;28;19913;-66
2022/08/20 02:09:33;;;;;;;;;;;17.00;99.90;;;;;;5051041;28;19908;-66
2022/08/20 02:11:59;;;;;;;;;;;17.00;99.90;;;;;;5051331;28;19916;-67
2022/08/20 02:14:25;;;;;;;;;;;17.00;99.90;;;;;;5051166;28;19912;-67
2022/08/20 02:16:50;;;;;;;;;;;17.00;99.90;;;;;;5067303;28;19932;-66
2022/08/20 02:19:24;;;;;;;;;;;17.00;99.90;;;;;;5050777;28;20397;-66
2022/08/20 02:21:52;;;;;;;;;;;17.00;99.90;;;;;;5051307;28;19928;-68
2022/08/20 02:24:18;;;;;;;;;;;16.90;99.90;;;;;;5033243;28;20323;-66
2022/08/20 02:26:44;;;;;;;;;;;16.90;99.90;;;;;;5051159;28;19909;-66
2022/08/20 02:29:11;;;;;;;;;;;16.90;99.90;;;;;;5050946;28;19916;-67
2022/08/20 02:31:38;;;;;;;;;;;17.00;99.90;;;;;;5050787;28;20407;-66
2022/08/20 02:34:04;;;;;;;;;;;16.90;99.90;;;;;;5050856;28;20016;-67
2022/08/20 02:36:30;;;;;;;;;;;16.90;99.90;;;;;;5051094;28;20046;-65
2022/08/20 02:38:55;;;;;;;;;;;16.90;99.90;;;;;;5050805;28;19995;-67
2022/08/20 02:41:21;;;;;;;;;;;16.90;99.90;;;;;;5051294;28;19935;-66
2022/08/20 02:43:48;;;;;;;;;;;16.90;99.90;;;;;;5059319;28;19909;-68
2022/08/20 02:46:14;;;;;;;;;;;16.90;99.90;;;;;;5070091;28;19908;-67
2022/08/20 02:48:40;;;;;;;;;;;16.90;99.90;;;;;;5073613;28;19934;-66
2022/08/20 02:51:05;;;;;;;;;;;16.80;99.90;;;;;;5072493;28;19915;-67
2022/08/20 02:53:32;;;;;;;;;;;16.80;99.90;;;;;;5054452;28;19912;-67
2022/08/20 02:55:59;;;;;;;;;;;16.70;99.90;;;;;;5054565;28;19912;-65
2022/08/20 02:58:25;;;;;;;;;;;16.70;99.90;;;;;;5054285;28;19908;-66
2022/08/20 03:00:50;;;;;;;;;;;16.70;99.90;;;;;;5054346;28;19912;-66
2022/08/20 03:03:21;;;;;;;;;;;16.60;99.90;;;;;;5054171;28;19909;-66
2022/08/20 03:05:48;;;;;;;;;;;16.60;99.90;;;;;;5054377;28;19913;-66
2022/08/20 03:08:14;;;;;;;;;;;16.60;99.90;;;;;;5054183;28;19917;-66
2022/08/20 03:10:41;;;;;;;;;;;16.60;99.90;;;;;;5054895;28;19913;-67
2022/08/20 03:13:11;;;;;;;;;;;16.60;99.90;;;;;;5054271;28;20422;-67
2022/08/20 03:15:38;;;;;;;;;;;16.60;99.90;;;;;;5053716;28;19916;-66
2022/08/20 03:18:04;;;;;;;;;;;16.60;99.90;;;;;;5054186;28;19908;-66
2022/08/20 03:20:30;;;;;;;;;;;16.60;99.90;;;;;;5053946;28;20047;-67
2022/08/20 03:22:56;;;;;;;;;;;16.50;99.90;;;;;;5054619;28;19909;-67
2022/08/20 03:25:21;;;;;;;;;;;16.50;99.90;;;;;;5047559;28;19956;-67
2022/08/20 03:27:48;;;;;;;;;;;16.50;99.90;;;;;;5053787;28;20262;-67
2022/08/20 03:30:14;;;;;;;;;;;16.50;99.90;;;;;;5053761;28;19921;-67
2022/08/20 03:32:40;;;;;;;;;;;16.50;99.90;;;;;;5053976;28;20373;-68
2022/08/20 03:35:07;;;;;;;;;;;16.50;99.90;;;;;;5035825;28;19916;-68
2022/08/20 03:37:34;;;;;;;;;;;16.40;99.90;;;;;;5054011;28;20301;-66
2022/08/20 03:40:00;;;;;;;;;;;16.40;99.90;;;;;;5054025;28;19963;-67
2022/08/20 03:42:26;;;;;;;;;;;16.40;99.90;;;;;;5035721;28;20285;-66
2022/08/20 03:44:52;;;;;;;;;;;16.30;99.90;;;;;;5059639;28;19912;-67
2022/08/20 03:47:18;;;;;;;;;;;16.30;99.90;;;;;;5053551;28;20320;-67
2022/08/20 03:49:43;;;;;;;;;;;16.30;99.90;;;;;;5053805;28;20008;-66
2022/08/20 03:52:09;;;;;;;;;;;16.20;99.90;;;;;;5053600;28;20362;-66
2022/08/20 03:54:34;;;;;;;;;;;16.20;99.90;;;;;;5052982;28;19959;-65
2022/08/20 03:57:01;;;;;;;;;;;16.20;99.90;;;;;;5053921;28;19913;-66
2022/08/20 03:59:27;;;;;;;;;;;16.30;99.90;;;;;;5052853;28;19909;-66
2022/08/20 04:01:53;;;;;;;;;;;16.20;99.90;;;;;;5053428;28;19921;-66
2022/08/20 04:04:19;;;;;;;;;;;16.20;99.90;;;;;;5053199;28;19936;-66
2022/08/20 04:06:46;;;;;;;;;;;16.20;99.90;;;;;;5053530;28;19909;-69
2022/08/20 04:09:12;;;;;;;;;;;16.20;99.90;;;;;;5053037;28;19908;-68
2022/08/20 04:11:38;;;;;;;;;;;16.10;99.90;;;;;;5053209;28;19909;-68
2022/08/20 04:14:03;;;;;;;;;;;16.10;99.90;;;;;;5053288;28;19912;-68
2022/08/20 04:16:29;;;;;;;;;;;16.10;99.90;;;;;;5053099;28;19913;-67
2022/08/20 04:18:54;;;;;;;;;;;16.10;99.90;;;;;;5052910;28;19916;-67
2022/08/20 04:21:20;;;;;;;;;;;16.00;99.90;;;;;;5052785;28;20394;-68
2022/08/20 04:23:45;;;;;;;;;;;16.00;99.90;;;;;;5052984;28;19912;-68
2022/08/20 04:26:11;;;;;;;;;;;16.00;99.90;;;;;;5053079;28;19947;-68
2022/08/20 04:28:36;;;;;;;;;;;16.00;99.90;;;;;;5034382;28;19954;-68
2022/08/20 04:31:02;;;;;;;;;;;16.00;99.90;;;;;;5052391;28;19969;-67
2022/08/20 04:33:29;;;;;;;;;;;16.00;99.90;;;;;;5053144;28;20055;-66
2022/08/20 04:35:59;;;;;;;;;;;15.90;99.90;;;;;;5052721;28;19913;-68
2022/08/20 04:38:25;;;;;;;;;;;15.90;99.90;;;;;;5052653;28;20423;-68
2022/08/20 04:40:56;;;;;;;;;;;16.00;99.90;;;;;;5052211;28;19920;-68
2022/08/20 04:43:23;;;;;;;;;;;15.90;99.90;;;;;;5034489;28;20527;-67
2022/08/20 04:45:50;;;;;;;;;;;15.90;99.90;;;;;;5058351;28;19952;-65
2022/08/20 04:48:17;;;;;;;;;;;15.90;99.90;;;;;;5052749;28;19909;-68
2022/08/20 04:50:43;;;;;;;;;;;15.90;99.90;;;;;;5052427;28;19909;-67
2022/08/20 04:53:10;;;;;;;;;;;15.90;99.90;;;;;;5052061;28;20007;-67
2022/08/20 04:55:38;;;;;;;;;;;15.80;99.90;;;;;;5052291;28;19917;-68
2022/08/20 04:58:15;;;;;;;;;;;15.80;99.90;;;;;;5052511;28;19916;-67
2022/08/20 05:00:43;;;;;;;;;;;15.90;99.90;;;;;;5052221;28;19920;-64
2022/08/20 05:03:09;;;;;;;;;;;15.80;99.90;;;;;;5045801;28;19909;-67
2022/08/20 05:05:35;;;;;;;;;;;15.80;99.90;;;;;;5051951;28;19916;-68
2022/08/20 05:08:00;;;;;;;;;;;15.80;99.90;;;;;;5051555;28;19956;-67
2022/08/20 05:10:26;;;;;;;;;;;15.80;99.90;;;;;;5052323;28;19913;-68
2022/08/20 05:12:52;;;;;;;;;;;15.90;99.90;;;;;;5056507;28;19915;-68
2022/08/20 05:15:17;;;;;;;;;;;15.90;99.90;;;;;;5071318;28;20372;-67
2022/08/20 05:17:43;;;;;;;;;;;15.90;99.90;;;;;;5063653;28;20418;-68
2022/08/20 05:20:10;;;;;;;;;;;15.80;99.90;;;;;;5062286;28;20033;-66
2022/08/20 05:22:36;;;;;;;;;;;15.90;99.90;;;;;;5053076;28;19921;-68
2022/08/20 05:25:02;;;;;;;;;;;15.80;99.90;;;;;;5051740;28;19916;-67
2022/08/20 05:27:28;;;;;;;;;;;15.90;99.90;;;;;;5051188;28;20368;-68
2022/08/20 05:29:54;;;;;;;;;;;15.80;99.90;;;;;;5051497;28;20000;-66
2022/08/20 05:32:20;;;;;;;;;;;15.90;99.90;;;;;;5051564;28;20412;-68
2022/08/20 05:34:46;;;;;;;;;;;15.90;99.90;;;;;;5052085;28;19917;-67
2022/08/20 05:37:11;;;;;;;;;;;15.90;99.90;;;;;;5051452;28;19986;-67
2022/08/20 05:39:37;;;;;;;;;;;15.90;99.90;;;;;;5051360;28;20423;-67
2022/08/20 05:42:02;;;;;;;;;;;15.90;99.90;;;;;;5051004;28;19924;-68
2022/08/20 05:44:28;;;;;;;;;;;16.00;99.90;;;;;;5057465;28;19916;-67
2022/08/20 05:49:29;;;;;;;;;;;16.00;99.90;;;;;;5091799;23;20418;-68
2022/08/20 05:51:55;;;;;;;;;;;16.10;99.90;;;;;;5071270;28;19924;-67
2022/08/20 05:54:22;;;;;;;;;;;16.10;99.90;;;;;;5070988;28;19912;-68
2022/08/20 05:56:48;;;;;;;;;;;16.10;99.90;;;;;;5070693;28;19953;-67
2022/08/20 05:59:14;;;;;;;;;;;16.10;99.90;;;;;;5071023;28;20007;-67
2022/08/20 06:01:40;;;;;;;;;;;16.20;99.90;;;;;;5071207;28;20682;-67
2022/08/20 06:04:26;;;;;;;;;;;16.20;99.90;;;;;;5071423;28;19908;-67
2022/08/20 06:06:53;;;;;;;;;;;16.20;99.90;;;;;;5067829;28;20257;-67
2022/08/20 06:09:20;;;;;;;;;;;16.30;99.90;;;;;;5070519;28;20292;-66
2022/08/20 06:11:45;;;;;;;;;;;16.30;99.90;;;;;;5070440;28;19916;-67
2022/08/20 06:14:11;;;;;;;;;;;16.30;99.90;;;;;;5053443;28;19909;-66
2022/08/20 06:16:37;;;;;;;;;;;16.30;99.90;;;;;;5071017;28;19919;-66
2022/08/20 06:19:03;;;;;;;;;;;16.30;99.90;;;;;;5073682;28;20081;-66
2022/08/20 06:21:28;;;;;;;;;;;16.40;99.90;;;;;;5074124;28;19916;-65
2022/08/20 06:23:54;;;;;;;;;;;16.40;99.90;;;;;;5074657;28;20369;-59
2022/08/20 06:26:19;;;;;;;;;;;16.50;99.90;;;;;;5071773;28;19916;-60
2022/08/20 06:28:45;;;;;;;;;;;16.50;99.90;;;;;;5075022;28;20288;-61
2022/08/20 06:31:11;;;;;;;;;;;16.50;99.90;;;;;;5056317;28;19920;-60
2022/08/20 06:33:36;;;;;;;;;;;16.60;99.90;;;;;;5074030;28;20013;-61
2022/08/20 06:36:02;;;;;;;;;;;16.70;99.90;;;;;;5071606;28;19912;-60
2022/08/20 06:38:28;;;;;;;;;;;16.70;99.90;;;;;;5072631;28;19917;-61
2022/08/20 06:40:53;;;;;;;;;;;16.70;99.90;;;;;;5069391;28;20449;-61
2022/08/20 06:43:19;;;;;;;;;;;16.80;99.90;;;;;;5051990;28;19996;-62
2022/08/20 06:45:44;;;;;;;;;;;16.80;99.90;;;;;;5074033;28;19952;-62
2022/08/20 06:48:16;;;;;;;;;;;16.80;99.90;;;;;;5073835;28;19970;-62
2022/08/20 06:50:43;;;;;;;;;;;16.90;99.90;;;;;;5075008;28;19954;-61
2022/08/20 06:53:09;;;;;;;;;;;16.90;99.90;;;;;;5070857;28;19987;-60
2022/08/20 06:55:36;;;;;;;;;;;17.00;99.90;;;;;;5046136;28;19955;-61
2022/08/20 06:58:03;;;;;;;;;;;17.00;99.90;;;;;;5071352;28;19921;-62
2022/08/20 07:00:32;;;;;;;;;;;17.10;99.90;;;;;;5070729;28;19996;-61
2022/08/20 07:02:59;;;;;;;;;;;17.10;99.90;;;;;;5070689;28;19924;-61
2022/08/20 07:05:25;;;;;;;;;;;17.10;99.90;;;;;;5071995;28;19912;-61
2022/08/20 07:07:51;;;;;;;;;;;17.10;99.90;;;;;;5068109;28;19913;-61
2022/08/20 07:10:19;;;;;;;;;;;17.10;99.90;;;;;;5071515;28;19912;-61
2022/08/20 07:12:45;;;;;;;;;;;17.20;99.90;;;;;;5067314;28;19920;-62
2022/08/20 07:15:11;;;;;;;;;;;17.20;99.90;;;;;;5070900;28;19922;-60
2022/08/20 07:17:37;;;;;;;;;;;17.30;99.90;;;;;;5070126;28;19912;-61
2022/08/20 07:20:04;;;;;;;;;;;17.30;99.90;;;;;;5070369;28;19934;-62
2022/08/20 07:22:30;;;;;;;;;;;17.40;99.90;;;;;;5071278;28;19924;-60
2022/08/20 07:24:56;;;;;;;;;;;17.40;99.90;;;;;;5071052;28;19916;-61
2022/08/20 07:27:22;;;;;;;;;;;17.50;99.90;;;;;;5070971;28;20044;-61
2022/08/20 07:32:38;;;;;;;;;;;17.60;99.90;;;;;;5071338;28;19927;-61
2022/08/20 07:35:05;;;;;;;;;;;17.60;99.90;;;;;;5070910;28;20651;-61
2022/08/20 07:37:30;;;;;;;;;;;17.70;99.90;;;;;;5068186;28;19999;-61
2022/08/20 07:39:56;;;;;;;;;;;17.80;99.90;;;;;;5053030;28;19930;-60
2022/08/20 07:42:22;;;;;;;;;;;17.80;99.90;;;;;;5070878;28;19990;-62
2022/08/20 07:44:47;;;;;;;;;;;17.90;99.90;;;;;;5071197;28;20406;-61
2022/08/20 07:47:16;;;;;;;;;;;18.00;99.90;;;;;;5070471;28;19917;-61
2022/08/20 07:49:42;;;;;;;;;;;18.00;99.90;;;;;;5071089;28;19920;-60
2022/08/20 07:52:07;;;;;;;;;;;18.00;99.90;;;;;;5070635;28;19938;-60
2022/08/20 07:54:34;;;;;;;;;;;18.10;99.90;;;;;;5071011;28;19912;-61
2022/08/20 07:57:02;;;;;;;;;;;18.10;99.90;;;;;;5068564;28;19952;-61
2022/08/20 07:59:28;;;;;;;;;;;18.10;99.90;;;;;;5070503;28;19935;-61
2022/08/20 08:01:54;;;;;;;;;;;18.10;99.90;;;;;;5071182;28;20483;-61
2022/08/20 08:04:19;;;;;;;;;;;18.20;99.90;;;;;;5070196;28;19944;-61
2022/08/20 08:06:45;;;;;;;;;;;18.20;99.90;;;;;;5070400;28;19923;-61
2022/08/20 08:09:11;;;;;;;;;;;18.20;99.90;;;;;;5067971;28;20518;-61
2022/08/20 08:11:38;;;;;;;;;;;18.20;99.90;;;;;;5070764;28;19973;-60
2022/08/20 08:14:05;;;;;;;;;;;18.30;99.90;;;;;;5070799;28;19952;-61
2022/08/20 08:16:31;;;;;;;;;;;18.40;99.90;;;;;;5069755;28;19923;-62
2022/08/20 08:18:57;;;;;;;;;;;18.40;99.90;;;;;;5070584;28;19912;-61
2022/08/20 08:21:23;;;;;;;;;;;18.50;99.90;;;;;;5069758;28;19932;-60
2022/08/20 08:23:49;;;;;;;;;;;18.50;99.90;;;;;;5070613;28;20376;-61
2022/08/20 08:26:15;;;;;;;;;;;18.50;99.90;;;;;;5070571;28;19961;-60
2022/08/20 08:28:43;;;;;;;;;;;18.50;99.90;;;;;;5070144;28;19919;-61
2022/08/20 08:31:08;;;;;;;;;;;18.60;99.90;;;;;;5070047;28;19916;-61
2022/08/20 08:33:34;;;;;;;;;;;18.60;99.90;;;;;;5070402;28;20174;-62
2022/08/20 08:36:02;;;;;;;;;;;18.60;99.90;;;;;;5066224;28;19935;-61
2022/08/20 08:38:28;;;;;;;;;;;18.70;99.90;;;;;;5069684;28;20003;-61
2022/08/20 08:40:55;;;;;;;;;;;18.70;99.90;;;;;;5069926;28;20169;-62
2022/08/20 08:43:24;;;;;;;;;;;18.70;99.90;;;;;;5070084;28;19966;-60
2022/08/20 08:46:10;;;;;;;;;;;18.80;99.90;;;;;;5069361;28;19913;-60
2022/08/20 08:48:43;;;;;;;;;;;18.80;99.90;;;;;;5067834;28;19924;-61
2022/08/20 08:51:11;;;;;;;;;;;18.90;99.90;;;;;;5069030;28;20352;-61
2022/08/20 08:53:46;;;;;;;;;;;19.00;99.90;;;;;;5069034;28;19959;-61
2022/08/20 08:56:15;;;;;;;;;;;19.00;99.90;;;;;;5069263;28;19932;-61
2022/08/20 08:58:43;;;;;;;;;;;19.00;99.90;;;;;;5068938;28;20325;-60
2022/08/20 09:01:11;;;;;;;;;;;19.00;99.90;;;;;;5069344;28;20328;-60
2022/08/20 09:03:38;;;;;;;;;;;19.10;99.90;;;;;;5067780;28;20398;-61
2022/08/20 09:06:05;;;;;;;;;;;19.20;99.90;;;;;;5069380;28;20221;-60
2022/08/20 09:08:33;;;;;;;;;;;19.20;99.90;;;;;;5051694;28;19913;-61
2022/08/20 09:11:05;;;;;;;;;;;19.30;99.90;;;;;;5069298;28;19966;-60
2022/08/20 09:13:31;;;;;;;;;;;19.30;99.90;;;;;;5069589;28;20422;-61
2022/08/20 09:15:57;;;;;;;;;;;19.30;99.90;;;;;;5070008;28;19916;-60
2022/08/20 09:18:22;;;;;;;;;;;19.30;99.90;;;;;;5068530;28;20650;-60
2022/08/20 09:20:48;;;;;;;;;;;19.30;99.90;;;;;;5069509;28;20003;-61
2022/08/20 09:23:14;;;;;;;;;;;19.30;99.90;;;;;;5069320;28;19916;-60
2022/08/20 09:25:39;;;;;;;;;;;19.40;99.90;;;;;;5069491;28;19916;-60
2022/08/20 09:28:05;;;;;;;;;;;19.30;99.90;;;;;;5069289;28;19912;-60
2022/08/20 09:30:30;;;;;;;;;;;19.40;99.90;;;;;;5069303;28;19916;-60
2022/08/20 09:32:58;;;;;;;;;;;19.40;99.90;;;;;;5068644;28;19931;-61
2022/08/20 09:35:23;;;;;;;;;;;19.50;99.90;;;;;;5050902;28;19921;-60
2022/08/20 09:37:50;;;;;;;;;;;19.50;99.90;;;;;;5069797;28;20315;-61
2022/08/20 09:40:16;;;;;;;;;;;19.60;99.90;;;;;;5068128;28;20326;-60
2022/08/20 09:42:42;;;;;;;;;;;19.60;99.90;;;;;;5068446;28;19928;-61
2022/08/20 09:45:08;;;;;;;;;;;19.70;99.90;;;;;;5067875;28;20018;-60
2022/08/20 09:47:34;;;;;;;;;;;19.70;99.90;;;;;;5068760;28;20011;-60
2022/08/20 09:49:59;;;;;;;;;;;19.70;99.90;;;;;;5068972;28;20042;-60
2022/08/20 09:52:27;;;;;;;;;;;19.70;99.90;;;;;;5068509;28;20067;-60
2022/08/20 09:54:54;;;;;;;;;;;19.70;99.90;;;;;;5069093;28;19913;-60
2022/08/20 09:57:22;;;;;;;;;;;19.80;99.90;;;;;;5068904;28;19912;-60
2022/08/20 09:59:51;;;;;;;;;;;19.80;99.90;;;;;;5068766;28;19913;-60
2022/08/20 10:02:17;;;;;;;;;;;19.80;99.90;;;;;;5068179;28;19920;-61
2022/08/20 10:04:42;;;;;;;;;;;19.80;99.90;;;;;;5066761;28;20277;-60
2022/08/20 10:07:08;;;;;;;;;;;19.80;99.90;;;;;;5064841;28;20357;-61
2022/08/20 10:09:34;;;;;;;;;;;19.80;99.90;;;;;;5068672;28;19916;-60
2022/08/20 10:12:00;;;;;;;;;;;19.80;99.90;;;;;;5069795;28;19974;-61
2022/08/20 10:14:25;;;;;;;;;;;19.90;99.90;;;;;;5068238;28;19916;-61
2022/08/20 10:17:00;;;;;;;;;;;19.90;99.90;;;;;;5068223;28;19920;-61
2022/08/20 10:19:26;;;;;;;;;;;19.90;99.90;;;;;;5067693;28;19958;-60
2022/08/20 10:21:53;;;;;;;;;;;19.90;99.90;;;;;;5064181;28;19931;-60
2022/08/20 10:24:19;;;;;;;;;;;19.90;99.90;;;;;;5066910;28;20366;-60
2022/08/20 10:26:45;;;;;;;;;;;19.90;99.90;;;;;;5068468;28;19916;-61
2022/08/20 10:29:10;;;;;;;;;;;20.00;99.90;;;;;;5068940;28;19919;-60
2022/08/20 10:31:36;;;;;;;;;;;20.00;99.90;;;;;;5067891;28;19922;-59
2022/08/20 10:34:01;;;;;;;;;;;20.10;99.90;;;;;;5068715;28;20031;-60
2022/08/20 10:36:27;;;;;;;;;;;20.10;99.90;;;;;;5068475;28;20392;-60
2022/08/20 10:38:53;;;;;;;;;;;20.10;99.90;;;;;;5068898;28;19912;-61
2022/08/20 10:41:18;;;;;;;;;;;20.20;99.90;;;;;;5068357;28;19974;-60
2022/08/20 10:43:44;;;;;;;;;;;20.30;99.90;;;;;;5068488;28;20371;-60
2022/08/20 10:46:10;;;;;;;;;;;20.30;99.90;;;;;;5067709;28;19924;-60
2022/08/20 10:48:36;;;;;;;;;;;20.30;99.90;;;;;;5068219;28;20027;-60
2022/08/20 10:51:02;;;;;;;;;;;20.40;99.90;;;;;;5068439;28;19974;-60
2022/08/20 10:53:27;;;;;;;;;;;20.40;99.90;;;;;;5068158;28;19960;-61
2022/08/20 10:55:53;;;;;;;;;;;20.50;99.90;;;;;;5068519;28;20287;-61
2022/08/20 10:58:19;;;;;;;;;;;20.50;99.90;;;;;;5068256;28;19970;-61
2022/08/20 11:00:46;;;;;;;;;;;20.50;99.90;;;;;;5065614;28;20324;-61
2022/08/20 11:03:11;;;;;;;;;;;20.50;99.90;;;;;;5068250;28;19920;-61
2022/08/20 11:05:37;;;;;;;;;;;20.60;99.90;;;;;;5069711;28;20374;-59
2022/08/20 11:08:03;;;;;;;;;;;20.60;99.90;;;;;;5072086;28;19912;-60
2022/08/20 11:10:29;;;;;;;;;;;20.60;99.90;;;;;;5071580;28;19916;-60
2022/08/20 11:12:55;;;;;;;;;;;20.60;99.90;;;;;;5071597;28;19969;-60
2022/08/20 11:15:21;;;;;;;;;;;20.60;99.90;;;;;;5071104;28;19916;-57
2022/08/20 11:17:47;;;;;;;;;;;20.50;99.90;;;;;;5072120;28;19913;-57
2022/08/20 11:20:14;;;;;;;;;;;20.50;99.90;;;;;;5053295;28;19923;-57
2022/08/20 11:22:42;;;;;;;;;;;20.50;99.90;;;;;;5070450;28;20289;-58
2022/08/20 11:25:08;;;;;;;;;;;20.50;99.90;;;;;;5071325;28;19913;-58
2022/08/20 11:27:35;;;;;;;;;;;20.60;99.90;;;;;;5071755;28;19912;-59
2022/08/20 11:30:01;;;;;;;;;;;20.70;99.90;;;;;;5070521;28;19920;-58
2022/08/20 11:32:26;;;;;;;;;;;20.80;99.90;;;;;;5070353;28;19920;-60
2022/08/20 11:34:52;;;;;;;;;;;20.90;99.90;;;;;;5071939;28;19923;-59
2022/08/20 11:37:19;;;;;;;;;;;20.90;99.90;;;;;;5071262;28;19916;-59
2022/08/20 11:39:44;;;;;;;;;;;20.90;99.90;;;;;;5071626;28;19924;-59
2022/08/20 11:42:10;;;;;;;;;;;20.90;99.90;;;;;;5071331;28;19974;-61
2022/08/20 11:44:36;;;;;;;;;;;20.90;99.70;;;;;;5070893;28;20012;-59
2022/08/20 11:47:02;;;;;;;;;;;20.90;99.00;;;;;;5068418;28;19944;-59
2022/08/20 11:49:31;;;;;;;;;;;20.90;98.70;;;;;;5070668;28;19924;-60
2022/08/20 11:51:57;;;;;;;;;;;20.90;99.70;;;;;;5071371;28;19912;-60
2022/08/20 11:54:22;;;;;;;;;;;20.90;99.90;;;;;;5070736;28;19916;-62
2022/08/20 11:56:48;;;;;;;;;;;21.00;99.90;;;;;;5071231;28;19951;-66
2022/08/20 11:59:15;;;;;;;;;;;21.10;99.90;;;;;;5069794;28;19958;-65
2022/08/20 12:01:40;;;;;;;;;;;21.20;99.90;;;;;;5070988;28;19963;-66
2022/08/20 12:04:06;;;;;;;;;;;21.20;99.90;;;;;;5071022;28;19951;-68
2022/08/20 12:06:32;;;;;;;;;;;21.30;99.80;;;;;;5070868;28;19993;-67
2022/08/20 12:08:58;;;;;;;;;;;21.40;99.50;;;;;;5070879;28;19939;-66
2022/08/20 12:11:24;;;;;;;;;;;21.50;98.70;;;;;;5070743;28;20368;-66
2022/08/20 12:13:49;;;;;;;;;;;21.40;99.60;;;;;;5067928;28;20007;-67
2022/08/20 12:16:15;;;;;;;;;;;21.50;99.90;;;;;;5070236;28;19978;-67
2022/08/20 12:18:41;;;;;;;;;;;21.50;99.90;;;;;;5070794;28;19916;-67
2022/08/20 12:21:06;;;;;;;;;;;21.60;99.90;;;;;;5070340;28;19924;-68
2022/08/20 12:23:32;;;;;;;;;;;21.60;99.90;;;;;;5071097;28;19924;-66
2022/08/20 12:26:01;;;;;;;;;;;21.80;98.50;;;;;;5070406;28;19966;-70
2022/08/20 12:28:27;;;;;;;;;;;21.80;99.90;;;;;;5070125;28;19924;-68
2022/08/20 12:30:53;;;;;;;;;;;21.80;99.90;;;;;;5070814;28;19913;-68
2022/08/20 12:33:18;;;;;;;;;;;21.90;98.00;;;;;;5070902;28;19912;-68
2022/08/20 12:35:44;;;;;;;;;;;21.90;97.70;;;;;;5051252;28;20300;-61
2022/08/20 12:38:09;;;;;;;;;;;21.90;98.30;;;;;;5068848;28;19913;-61
2022/08/20 12:40:35;;;;;;;;;;;21.90;98.40;;;;;;5051996;28;19999;-62
2022/08/20 12:43:01;;;;;;;;;;;21.90;97.30;;;;;;5070275;28;19920;-62
2022/08/20 12:45:27;;;;;;;;;;;21.90;96.70;;;;;;5069655;28;20292;-60
2022/08/20 12:47:58;;;;;;;;;;;21.80;98.20;;;;;;5070047;28;19940;-61
2022/08/20 12:50:24;;;;;;;;;;;21.80;96.90;;;;;;5069558;28;20470;-59
2022/08/20 12:52:50;;;;;;;;;;;21.90;96.60;;;;;;5069865;28;20441;-62
2022/08/20 12:55:17;;;;;;;;;;;21.80;97.80;;;;;;5069459;28;19912;-60
2022/08/20 12:57:44;;;;;;;;;;;21.90;98.00;;;;;;5052031;28;19916;-59
2022/08/20 13:00:15;;;;;;;;;;;22.10;98.10;;;;;;5069384;28;19919;-63
2022/08/20 13:02:41;;;;;;;;;;;22.20;96.90;;;;;;5069010;28;19924;-61
2022/08/20 13:05:07;;;;;;;;;;;22.10;98.30;;;;;;5069916;28;19962;-61
2022/08/20 13:07:33;;;;;;;;;;;22.10;96.70;;;;;;5069475;28;20269;-61
2022/08/20 13:09:59;;;;;;;;;;;22.10;96.90;;;;;;5051270;28;19920;-63
2022/08/20 13:12:24;;;;;;;;;;;22.10;97.60;;;;;;5069221;28;19942;-63
2022/08/20 13:14:50;;;;;;;;;;;22.20;97.10;;;;;;5051958;28;19912;-61
2022/08/20 13:17:17;;;;;;;;;;;22.20;96.50;;;;;;5069363;28;20056;-62
2022/08/20 13:19:44;;;;;;;;;;;22.20;94.90;;;;;;5069394;28;20015;-61
2022/08/20 13:22:09;;;;;;;;;;;22.20;95.70;;;;;;5069191;28;19921;-62
2022/08/20 13:24:36;;;;;;;;;;;22.20;95.60;;;;;;5069350;28;19920;-61
2022/08/20 13:27:08;;;;;;;;;;;22.20;95.20;;;;;;5068701;28;19912;-62
2022/08/20 13:29:33;;;;;;;;;;;22.20;95.80;;;;;;5069287;28;19923;-61
2022/08/20 13:31:59;;;;;;;;;;;22.20;96.70;;;;;;5069480;28;19916;-59
2022/08/20 13:34:24;;;;;;;;;;;22.30;96.60;;;;;;5069014;28;19917;-60
2022/08/20 13:36:50;;;;;;;;;;;22.30;96.70;;;;;;5069313;28;20410;-60
2022/08/20 13:39:15;;;;;;;;;;;22.40;96.50;;;;;;5068892;28;19912;-60
2022/08/20 13:41:42;;;;;;;;;;;22.40;96.20;;;;;;5068833;28;19943;-61
2022/08/20 13:44:08;;;;;;;;;;;22.40;95.80;;;;;;5068935;28;19934;-60
2022/08/20 13:46:33;;;;;;;;;;;22.40;96.30;;;;;;5069331;28;20380;-60
2022/08/20 13:48:59;;;;;;;;;;;22.50;94.50;;;;;;5069229;28;19931;-59
2022/08/20 13:51:27;;;;;;;;;;;22.50;94.30;;;;;;5068988;28;19920;-58
2022/08/20 13:53:53;;;;;;;;;;;22.50;94.90;;;;;;5068723;28;19952;-59
2022/08/20 13:56:18;;;;;;;;;;;22.60;94.20;;;;;;5068629;28;19955;-59
2022/08/20 13:58:44;;;;;;;;;;;22.60;93.50;;;;;;5069014;28;19923;-59
2022/08/20 14:01:09;;;;;;;;;;;22.60;95.00;;;;;;5068005;28;19917;-59
2022/08/20 14:03:35;;;;;;;;;;;22.60;95.60;;;;;;5069327;28;19916;-59
2022/08/20 14:06:02;;;;;;;;;;;22.70;95.30;;;;;;5069368;28;19959;-60
2022/08/20 14:08:28;;;;;;;;;;;22.70;93.90;;;;;;5068006;28;19916;-60
2022/08/20 14:10:53;;;;;;;;;;;22.70;93.20;;;;;;5068988;28;19960;-59
2022/08/20 14:13:20;;;;;;;;;;;22.70;94.20;;;;;;5068607;28;20418;-60
2022/08/20 14:15:49;;;;;;;;;;;22.70;93.70;;;;;;5069245;28;19960;-59
2022/08/20 14:18:15;;;;;;;;;;;22.70;93.50;;;;;;5068487;28;20376;-60
2022/08/20 14:20:40;;;;;;;;;;;22.80;93.90;;;;;;5069093;28;19916;-59